createdAt,value
2022-11-12T00:00:59.121Z,95831.59
2022-11-12T00:03:27.504Z,95828.53
2022-11-12T00:05:55.722Z,95819.59
2022-11-12T00:08:24.059Z,95812.25
2022-11-12T00:10:52.215Z,95802.44
2022-11-12T00:13:20.132Z,95807.84
2022-11-12T00:15:49.430Z,95812.13
2022-11-12T00:18:17.344Z,95795.88
2022-11-12T00:20:45.794Z,95800.22
2022-11-12T00:23:13.672Z,95808.69
2022-11-12T00:25:41.702Z,95803.09
2022-11-12T00:28:11.197Z,95812.66
2022-11-12T00:30:40.280Z,95806.53
2022-11-12T00:33:09.983Z,95808.41
2022-11-12T00:35:37.883Z,95814.41
2022-11-12T00:38:05.793Z,95817.00
2022-11-12T00:40:33.734Z,95817.94
2022-11-12T00:43:01.652Z,95823.34
2022-11-12T00:45:29.529Z,95821.47
2022-11-12T00:47:57.777Z,95826.50
2022-11-12T00:50:27.186Z,95824.72
2022-11-12T00:52:55.392Z,95826.06
2022-11-12T00:55:23.398Z,95815.69
2022-11-12T00:57:52.513Z,95812.84
2022-11-12T01:00:22.453Z,95788.09
2022-11-12T01:02:51.288Z,95792.66
2022-11-12T01:05:19.938Z,95798.28
2022-11-12T01:07:54.829Z,95790.78
2022-11-12T01:10:24.068Z,95805.69
2022-11-12T01:12:52.140Z,95797.00
2022-11-12T01:15:20.183Z,95796.59
2022-11-12T01:17:48.108Z,95798.38
2022-11-12T01:20:16.092Z,95791.16
2022-11-12T01:22:43.919Z,95789.31
2022-11-12T01:25:13.241Z,95794.56
2022-11-12T01:27:41.333Z,95798.00
2022-11-12T01:30:10.483Z,95793.91
2022-11-12T01:32:38.497Z,95789.03
2022-11-12T01:35:07.165Z,95788.50
2022-11-12T01:37:35.142Z,95775.00
2022-11-12T01:40:03.142Z,95791.75
2022-11-12T01:42:33.995Z,95783.19
2022-11-12T01:45:01.881Z,95782.22
2022-11-12T01:47:33.597Z,95770.47
2022-11-12T01:50:13.160Z,95784.84
2022-11-12T01:52:46.349Z,95780.34
2022-11-12T01:55:17.007Z,95787.41
2022-11-12T01:57:53.390Z,95772.56
2022-11-12T02:00:21.547Z,95778.81
2022-11-12T02:02:55.065Z,95771.03
2022-11-12T02:05:24.632Z,95774.34
2022-11-12T02:07:53.627Z,95772.66
2022-11-12T02:10:22.719Z,95775.00
2022-11-12T02:13:11.290Z,95774.72
2022-11-12T02:15:41.628Z,95783.44
2022-11-12T02:18:10.034Z,95782.63
2022-11-12T02:20:39.449Z,95792.16
2022-11-12T02:23:09.746Z,95793.38
2022-11-12T02:25:37.858Z,95791.63
2022-11-12T02:28:09.202Z,95794.47
2022-11-12T02:30:39.843Z,95775.63
2022-11-12T02:33:07.803Z,95786.41
2022-11-12T02:35:36.001Z,95794.31
2022-11-12T02:38:04.604Z,95788.00
2022-11-12T02:40:34.235Z,95788.94
2022-11-12T02:43:02.180Z,95789.78
2022-11-12T02:45:32.077Z,95774.72
2022-11-12T02:48:00.204Z,95780.41
2022-11-12T02:50:28.117Z,95780.66
2022-11-12T02:52:56.033Z,95783.16
2022-11-12T02:55:23.916Z,95781.38
2022-11-12T02:57:53.147Z,95770.84
2022-11-12T03:00:21.075Z,95771.66
2022-11-12T03:02:59.046Z,95776.03
2022-11-12T03:05:28.141Z,95786.28
2022-11-12T03:08:00.067Z,95781.56
2022-11-12T03:10:28.872Z,95786.03
2022-11-12T03:12:59.802Z,95787.75
2022-11-12T03:15:28.648Z,95778.16
2022-11-12T03:17:58.282Z,95779.50
2022-11-12T03:20:26.665Z,95771.09
2022-11-12T03:22:58.850Z,95780.78
2022-11-12T03:25:26.887Z,95786.38
2022-11-12T03:28:00.372Z,95789.38
2022-11-12T03:30:28.787Z,95792.75
2022-11-12T03:32:56.823Z,95786.88
2022-11-12T03:35:25.151Z,95785.63
2022-11-12T03:37:53.036Z,95779.66
2022-11-12T03:40:21.209Z,95776.94
2022-11-12T03:42:50.634Z,95781.72
2022-11-12T03:45:21.953Z,95781.59
2022-11-12T03:47:51.381Z,95780.19
2022-11-12T03:50:21.123Z,95783.22
2022-11-12T03:52:50.001Z,95785.00
2022-11-12T03:55:20.384Z,95767.00
2022-11-12T03:57:49.324Z,95775.34
2022-11-12T04:00:20.202Z,95780.56
2022-11-12T04:02:48.184Z,95767.59
2022-11-12T04:05:33.694Z,95777.94
2022-11-12T04:08:21.123Z,95784.06
2022-11-12T04:10:49.491Z,95783.34
2022-11-12T04:13:29.406Z,95765.56
2022-11-12T04:16:21.388Z,95772.28
2022-11-12T04:19:08.450Z,95770.16
2022-11-12T04:21:51.800Z,95769.72
2022-11-12T04:24:38.472Z,95764.78
2022-11-12T04:27:07.166Z,95773.88
2022-11-12T04:29:52.525Z,95764.44
2022-11-12T04:32:22.187Z,95770.41
2022-11-12T04:34:50.093Z,95760.81
2022-11-12T04:37:23.223Z,95759.97
2022-11-12T04:39:51.658Z,95770.31
2022-11-12T04:42:52.246Z,95764.94
2022-11-12T04:45:20.155Z,95768.38
2022-11-12T04:47:49.388Z,95761.59
2022-11-12T04:50:19.513Z,95768.50
2022-11-12T04:52:47.469Z,95770.75
2022-11-12T04:55:15.350Z,95774.72
2022-11-12T04:57:43.283Z,95779.22
2022-11-12T05:00:12.821Z,95776.63
2022-11-12T05:02:40.737Z,95792.09
2022-11-12T05:05:10.223Z,95786.38
2022-11-12T05:07:38.239Z,95787.16
2022-11-12T05:10:06.949Z,95792.28
2022-11-12T05:12:34.997Z,95794.16
2022-11-12T05:15:03.611Z,95802.38
2022-11-12T05:17:32.711Z,95807.47
2022-11-12T05:20:00.649Z,95816.13
2022-11-12T05:22:43.401Z,95811.31
2022-11-12T05:25:16.022Z,95813.19
2022-11-12T05:27:44.191Z,95810.56
2022-11-12T05:30:13.157Z,95815.13
2022-11-12T05:32:41.060Z,95818.69
2022-11-12T05:35:09.394Z,95825.13
2022-11-12T05:37:38.683Z,95822.72
2022-11-12T05:40:07.929Z,95829.53
2022-11-12T05:42:35.826Z,95819.78
2022-11-12T05:45:05.794Z,95829.50
2022-11-12T05:47:33.617Z,95828.56
2022-11-12T05:50:01.506Z,95830.19
2022-11-12T05:52:29.337Z,95832.97
2022-11-12T05:54:58.616Z,95834.63
2022-11-12T05:57:28.323Z,95839.44
2022-11-12T05:59:56.233Z,95842.34
2022-11-12T06:02:24.209Z,95849.84
2022-11-12T06:04:52.166Z,95834.88
2022-11-12T06:07:20.053Z,95850.06
2022-11-12T06:09:47.903Z,95860.34
2022-11-12T06:12:17.208Z,95851.75
2022-11-12T06:14:45.111Z,95861.72
2022-11-12T06:17:13.005Z,95859.41
2022-11-12T06:19:40.903Z,95861.28
2022-11-12T06:22:08.807Z,95863.75
2022-11-12T06:24:36.788Z,95858.13
2022-11-12T06:27:05.468Z,95852.78
2022-11-12T06:29:34.725Z,95853.84
2022-11-12T06:32:02.594Z,95853.00
2022-11-12T06:34:30.460Z,95848.91
2022-11-12T06:36:59.131Z,95847.06
2022-11-12T06:39:27.002Z,95844.56
2022-11-12T06:41:54.926Z,95859.22
2022-11-12T06:44:22.863Z,95862.50
2022-11-12T06:46:52.397Z,95859.91
2022-11-12T06:49:20.709Z,95875.53
2022-11-12T06:51:51.854Z,95873.91
2022-11-12T06:54:19.805Z,95866.28
2022-11-12T06:57:04.167Z,95870.44
2022-11-12T06:59:32.139Z,95866.31
2022-11-12T07:02:01.513Z,95869.34
2022-11-12T07:04:29.487Z,95873.31
2022-11-12T07:06:57.473Z,95866.22
2022-11-12T07:09:25.374Z,95876.91
2022-11-12T07:11:53.279Z,95867.91
2022-11-12T07:14:21.119Z,95867.25
2022-11-12T07:16:48.965Z,95874.28
2022-11-12T07:19:18.202Z,95868.53
2022-11-12T07:21:46.081Z,95868.16
2022-11-12T07:24:13.982Z,95858.25
2022-11-12T07:26:47.143Z,95853.72
2022-11-12T07:29:29.980Z,95862.38
2022-11-12T07:32:03.562Z,95865.81
2022-11-12T07:34:32.859Z,95875.91
2022-11-12T07:37:00.831Z,95867.72
2022-11-12T07:39:28.697Z,95875.94
2022-11-12T07:41:56.597Z,95888.63
2022-11-12T07:44:24.517Z,95882.78
2022-11-12T07:46:52.387Z,95875.97
2022-11-12T07:49:20.299Z,95885.09
2022-11-12T07:51:49.506Z,95881.28
2022-11-12T07:54:17.415Z,95875.28
2022-11-12T07:56:45.271Z,95882.13
2022-11-12T07:59:13.163Z,95874.19
2022-11-12T08:01:42.493Z,95876.66
2022-11-12T08:04:12.583Z,95886.91
2022-11-12T08:06:40.685Z,95898.38
2022-11-12T08:09:10.859Z,95899.59
2022-11-12T08:11:38.878Z,95896.63
2022-11-12T08:14:14.156Z,95881.84
2022-11-12T08:16:42.168Z,95891.94
2022-11-12T08:19:10.145Z,95898.66
2022-11-12T08:21:38.018Z,95892.22
2022-11-12T08:24:06.559Z,95898.94
2022-11-12T08:26:35.777Z,95894.97
2022-11-12T08:29:08.297Z,95884.81
2022-11-12T08:31:37.421Z,95895.75
2022-11-12T08:34:12.460Z,95907.50
2022-11-12T08:36:41.315Z,95902.06
2022-11-12T08:39:10.033Z,95903.31
2022-11-12T08:41:39.912Z,95902.91
2022-11-12T08:44:08.918Z,95905.63
2022-11-12T08:46:37.059Z,95894.28
2022-11-12T08:49:05.071Z,95913.97
2022-11-12T08:51:32.935Z,95888.56
2022-11-12T08:54:00.818Z,95905.91
2022-11-12T08:56:28.700Z,95910.84
2022-11-12T08:58:57.959Z,95900.16
2022-11-12T09:01:25.944Z,95907.81
2022-11-12T09:03:54.162Z,95902.63
2022-11-12T09:06:22.343Z,95891.66
2022-11-12T09:08:50.287Z,95899.53
2022-11-12T09:11:18.271Z,95894.16
2022-11-12T09:13:46.406Z,95891.78
2022-11-12T09:16:15.742Z,95902.97
2022-11-12T09:18:43.680Z,95894.75
2022-11-12T09:21:13.390Z,95899.06
2022-11-12T09:23:41.758Z,95892.38
2022-11-12T09:26:09.748Z,95892.50
2022-11-12T09:28:37.648Z,95884.69
2022-11-12T09:31:08.142Z,95899.13
2022-11-12T09:33:37.570Z,95896.97
2022-11-12T09:36:06.484Z,95892.16
2022-11-12T09:38:34.427Z,95892.97
2022-11-12T09:41:26.956Z,95895.47
2022-11-12T09:43:57.369Z,95897.97
2022-11-12T09:46:30.882Z,95907.69
2022-11-12T09:49:06.191Z,95902.59
2022-11-12T09:51:37.333Z,95906.88
2022-11-12T09:54:14.920Z,95903.75
2022-11-12T09:56:42.850Z,95907.97
2022-11-12T09:59:13.588Z,95895.25
2022-11-12T10:01:54.709Z,95883.91
2022-11-12T10:04:41.998Z,95903.16
2022-11-12T10:07:18.064Z,95902.03
2022-11-12T10:09:54.265Z,95900.03
2022-11-12T10:12:33.422Z,95849.56
2022-11-12T10:15:57.572Z,95908.09
2022-11-12T10:18:33.695Z,95901.94
2022-11-12T10:21:12.455Z,95899.09
2022-11-12T10:23:43.417Z,95893.31
2022-11-12T10:26:13.884Z,95907.38
2022-11-12T10:28:47.385Z,95901.78
2022-11-12T10:31:17.617Z,95897.97
2022-11-12T10:33:46.272Z,95907.28
2022-11-12T10:36:23.220Z,95902.47
2022-11-12T10:38:54.444Z,95895.34
2022-11-12T10:41:25.671Z,95900.44
2022-11-12T10:44:02.503Z,95909.59
2022-11-12T10:46:32.504Z,95897.84
2022-11-12T10:49:05.759Z,95897.28
2022-11-12T10:51:36.916Z,95898.50
2022-11-12T10:54:29.466Z,95896.75
2022-11-12T10:56:57.455Z,95899.06
2022-11-12T10:59:26.204Z,95894.03
2022-11-12T11:01:59.350Z,95898.81
2022-11-12T11:04:31.589Z,95888.66
2022-11-12T11:07:06.898Z,95896.59
2022-11-12T11:09:35.707Z,95897.16
2022-11-12T11:12:04.318Z,95893.47
2022-11-12T11:14:38.301Z,95895.09
2022-11-12T11:17:21.032Z,95861.19
2022-11-12T11:19:48.973Z,95897.28
2022-11-12T11:22:43.016Z,95894.97
2022-11-12T11:25:23.976Z,95896.06
2022-11-12T11:28:14.631Z,95884.16
2022-11-12T11:30:52.798Z,95874.72
2022-11-12T11:33:33.790Z,95889.59
2022-11-12T11:36:15.251Z,95890.31
2022-11-12T11:43:01.649Z,95895.34
2022-11-12T11:45:50.262Z,95892.75
2022-11-12T11:48:36.986Z,95842.03
2022-11-12T11:51:16.076Z,95830.84
2022-11-12T11:53:57.686Z,95854.88
2022-11-12T11:56:30.511Z,95892.50
2022-11-12T11:59:30.153Z,95826.06
2022-11-12T12:02:24.341Z,95891.69
2022-11-12T12:05:10.724Z,95842.31
2022-11-12T12:08:01.845Z,95843.00
2022-11-12T12:11:09.075Z,95895.25
2022-11-12T12:13:58.556Z,95881.97
2022-11-12T12:17:00.600Z,95838.34
2022-11-12T12:19:42.775Z,95859.94
2022-11-12T12:22:15.688Z,95870.84
2022-11-12T12:25:04.496Z,95864.72
2022-11-12T12:27:36.870Z,95876.34
2022-11-12T12:30:15.147Z,95874.94
2022-11-12T12:32:50.289Z,95865.09
2022-11-12T12:35:39.832Z,95882.34
2022-11-12T12:38:21.873Z,95885.41
2022-11-12T12:41:03.791Z,95875.13
2022-11-12T12:43:41.125Z,95878.41
2022-11-12T12:46:13.647Z,95876.31
2022-11-12T12:48:45.446Z,95870.88
2022-11-12T12:51:13.912Z,95882.50
2022-11-12T12:53:47.421Z,95879.22
2022-11-12T12:56:47.066Z,95882.09
2022-11-12T12:59:23.733Z,95877.72
2022-11-12T13:02:00.455Z,95878.28
2022-11-12T13:04:56.753Z,95881.16
2022-11-12T13:07:41.750Z,95880.34
2022-11-12T13:10:56.463Z,95878.41
2022-11-12T13:13:32.466Z,95883.22
2022-11-12T13:16:02.580Z,95880.06
2022-11-12T13:19:03.896Z,95888.81
2022-11-12T13:21:41.225Z,95860.66
2022-11-12T13:24:15.232Z,95888.28
2022-11-12T13:26:48.924Z,95883.91
2022-11-12T13:29:44.720Z,95891.69
2022-11-12T13:32:34.856Z,95877.19
2022-11-12T13:35:31.162Z,95880.59
2022-11-12T13:38:04.158Z,95879.66
2022-11-12T13:40:43.680Z,95881.84
2022-11-12T13:43:18.636Z,95875.69
2022-11-12T13:45:50.404Z,95889.88
2022-11-12T13:48:32.540Z,95880.47
2022-11-12T13:51:15.813Z,95875.25
2022-11-12T13:53:45.383Z,95863.59
2022-11-12T13:56:14.508Z,95871.09
2022-11-12T13:58:44.691Z,95863.03
2022-11-12T14:01:15.728Z,95858.53
2022-11-12T14:03:51.344Z,95870.44
2022-11-12T14:06:31.163Z,95865.50
2022-11-12T14:09:33.569Z,95861.41
2022-11-12T14:12:25.483Z,95856.22
2022-11-12T14:15:18.213Z,95858.28
2022-11-12T14:18:07.794Z,95868.78
2022-11-12T14:20:41.049Z,95865.66
2022-11-12T14:23:20.062Z,95859.22
2022-11-12T14:26:08.935Z,95848.28
2022-11-12T14:28:54.456Z,95851.13
2022-11-12T14:31:34.384Z,95849.06
2022-11-12T14:34:21.610Z,95866.41
2022-11-12T14:36:58.938Z,95862.72
2022-11-12T14:39:31.689Z,95863.09
2022-11-12T14:42:04.148Z,95865.00
2022-11-12T14:44:37.066Z,95845.47
2022-11-12T14:47:05.371Z,95849.16
2022-11-12T14:49:48.187Z,95861.72
2022-11-12T14:52:19.338Z,95837.66
2022-11-12T14:54:54.973Z,95853.53
2022-11-12T14:57:30.125Z,95858.31
2022-11-12T15:00:01.182Z,95856.38
2022-11-12T15:02:53.789Z,95852.16
2022-11-12T15:05:24.214Z,95856.78
2022-11-12T15:08:01.800Z,95860.34
2022-11-12T15:17:25.276Z,95851.19
2022-11-12T15:20:04.898Z,95843.69
2022-11-12T15:22:55.775Z,95845.44
2022-11-12T15:25:30.434Z,95843.41
2022-11-12T15:28:26.392Z,95854.75
2022-11-12T15:31:18.702Z,95859.25
2022-11-12T15:33:50.541Z,95856.03
2022-11-12T15:37:11.041Z,95856.56
2022-11-12T15:40:04.725Z,95851.13
2022-11-12T15:42:56.839Z,95845.66
2022-11-12T15:45:24.908Z,95829.03
2022-11-12T15:47:52.783Z,95856.03
2022-11-12T15:50:26.992Z,95839.63
2022-11-12T15:52:59.998Z,95857.81
2022-11-12T15:55:29.787Z,95861.75
2022-11-12T16:26:10.893Z,95876.50
2022-11-12T16:28:39.366Z,95880.22
2022-11-12T16:31:10.536Z,95859.03
2022-11-12T16:33:41.309Z,95865.31
2022-11-12T16:36:28.825Z,95867.25
2022-11-12T16:38:56.774Z,95869.47
2022-11-12T16:41:29.021Z,95871.88
2022-11-12T16:43:59.768Z,95881.22
2022-11-12T17:38:05.903Z,95876.94
2022-11-12T17:40:56.273Z,95864.34
2022-11-12T17:43:46.177Z,95859.44
2022-11-12T17:46:29.016Z,95872.53
2022-11-12T17:49:12.608Z,95870.50
2022-11-12T17:51:42.845Z,95875.69
2022-11-12T17:57:53.077Z,95872.97
2022-11-12T18:00:25.509Z,95871.25
2022-11-12T18:12:20.231Z,95874.94
2022-11-12T18:18:11.104Z,95876.81
2022-11-12T18:21:27.348Z,95882.81
2022-11-12T18:24:03.500Z,95886.94
2022-11-12T18:26:43.427Z,95874.94
2022-11-12T18:30:08.495Z,95882.44
2022-11-12T20:22:31.901Z,95887.91
2022-11-12T20:36:23.632Z,95906.13
2022-11-12T20:39:02.367Z,95916.28
2022-11-12T20:47:32.048Z,95896.63
2022-11-12T20:56:43.530Z,95914.47
2022-11-12T21:33:58.558Z,95887.81
2022-11-12T21:37:10.988Z,95907.34
2022-11-12T21:53:53.592Z,95894.59
2022-11-12T22:05:56.150Z,95898.91
2022-11-12T23:06:32.195Z,95891.75
2022-11-12T23:09:01.313Z,95881.50
2022-11-12T23:11:29.724Z,95874.38
2022-11-12T23:13:58.598Z,95875.47
2022-11-12T23:16:29.637Z,95885.84
2022-11-12T23:18:58.103Z,95866.69
2022-11-12T23:21:28.083Z,95885.31
2022-11-12T23:24:00.055Z,95874.50
2022-11-12T23:26:31.149Z,95866.06
2022-11-12T23:28:59.308Z,95874.38
2022-11-12T23:31:29.453Z,95873.84
2022-11-12T23:34:00.247Z,95874.00
2022-11-12T23:36:28.957Z,95869.75
2022-11-12T23:38:58.915Z,95856.19
2022-11-12T23:41:27.995Z,95871.34
2022-11-12T23:43:57.877Z,95867.25
2022-11-12T23:46:26.207Z,95848.88
2022-11-12T23:48:54.389Z,95871.75
2022-11-12T23:51:23.526Z,95875.19
2022-11-12T23:53:51.604Z,95873.53
2022-11-12T23:56:21.146Z,95856.47
2022-11-12T23:58:49.417Z,95852.09
